PWSweather.com
Personal Weather Stations
Station Observations
79674
AfterstegDE 79674

AfterstegDE 79674

Lat: 47.84344, Lon: 7.92844

Elevation: 809

Station Type: Davis Vantage 2 Aktive

Latest ConditionsUpdated 8:57:04 PM GMT+01:01 Wednesday, Dec 12, 2018
Currently Today's Max Today's Min Today's Average
Temperature 28.0°F-2.2°C 34.3°F1.3°C 21.6°F-5.8°C 26.9°F-2.8°C
Dew Point 23.5°F-4.7°C 27.7°F-2.4°C 18.3°F-7.6°C 22.4°F-5.3°C
Winds 0.9 mph SSW1.4 kmh SSW 6.0 mph -9.7 kmh - - 0.9 mph 1.4 kmh
Wind Gusts 4.0 mph6.4 kmh 8.9 mph14.3 kmh - -
Humidity 83% 90% 72% 83%
Pressure 30.16 in1021.3 mb 30.29 in1025.7 mb 30.16 in1021.3 mb -
Precipitation - 0.01 in0.3 mm - -
Hour Temp Dew Point Humidity Winds Wind Gusts Pressure Precip Precip Rate Daily Precip Total
08:57 PM 28.0°F-2.2°C 23.5°F-4.7°C 83% 0.9 mph SSW1.4 kmh SSW 4.0 mph6.4 kmh 30.16 in1021.3 mb - 0.00 in0.0 mm 0.01 in0.3 mm
08:52 PM 28.2°F-2.1°C 23.7°F-4.6°C 83% Calm Calm 2.0 mph3.2 kmh 30.16 in1021.3 mb - 0.00 in0.0 mm 0.01 in0.3 mm
08:47 PM 28.2°F-2.1°C 24.1°F-4.4°C 84% 0.9 mph NNE1.4 kmh NNE -- 30.16 in1021.3 mb - 0.00 in0.0 mm 0.01 in0.3 mm
08:42 PM 28.4°F-2.0°C 24.3°F-4.3°C 84% 0.9 mph SSW1.4 kmh SSW -- 30.17 in1021.7 mb - 0.00 in0.0 mm 0.01 in0.3 mm
08:37 PM 28.6°F-1.9°C 24.4°F-4.2°C 84% 0.9 mph E1.4 kmh E 0.9 mph1.4 kmh 30.17 in1021.7 mb - 0.00 in0.0 mm 0.01 in0.3 mm
08:32 PM 28.6°F-1.9°C 24.4°F-4.2°C 84% Calm Calm 2.0 mph3.2 kmh 30.17 in1021.7 mb - 0.00 in0.0 mm 0.01 in0.3 mm
08:27 PM 28.6°F-1.9°C 24.6°F-4.1°C 85% Calm Calm -- 30.17 in1021.7 mb - 0.00 in0.0 mm 0.01 in0.3 mm
08:22 PM 28.4°F-2.0°C 24.4°F-4.2°C 85% Calm Calm -- 30.17 in1021.7 mb - 0.00 in0.0 mm 0.01 in0.3 mm
08:17 PM 28.0°F-2.2°C 24.4°F-4.2°C 86% Calm Calm 2.0 mph3.2 kmh 30.17 in1021.7 mb - 0.00 in0.0 mm 0.01 in0.3 mm
08:12 PM 27.9°F-2.3°C 23.9°F-4.5°C 85% Calm Calm -- 30.17 in1021.7 mb - 0.00 in0.0 mm 0.01 in0.3 mm
08:07 PM 27.9°F-2.3°C 23.9°F-4.5°C 85% Calm Calm 0.9 mph1.4 kmh 30.17 in1021.7 mb - 0.00 in0.0 mm 0.01 in0.3 mm
08:02 PM 27.9°F-2.3°C 23.9°F-4.5°C 85% Calm Calm -- 30.17 in1021.7 mb - 0.00 in0.0 mm 0.01 in0.3 mm
07:57 PM 27.9°F-2.3°C 23.9°F-4.5°C 85% Calm Calm -- 30.17 in1021.7 mb - 0.00 in0.0 mm 0.01 in0.3 mm
07:52 PM 27.7°F-2.4°C 23.5°F-4.7°C 84% Calm Calm -- 30.17 in1021.7 mb - 0.00 in0.0 mm 0.01 in0.3 mm
07:47 PM 28.0°F-2.2°C 24.1°F-4.4°C 85% 0.9 mph NW1.4 kmh NW -- 30.17 in1021.7 mb - 0.00 in0.0 mm 0.01 in0.3 mm
07:42 PM 27.9°F-2.3°C 23.9°F-4.5°C 85% 0.9 mph NW1.4 kmh NW -- 30.17 in1021.7 mb - 0.00 in0.0 mm 0.01 in0.3 mm
07:37 PM 27.9°F-2.3°C 23.7°F-4.6°C 84% 0.9 mph NW1.4 kmh NW 2.0 mph3.2 kmh 30.17 in1021.7 mb - 0.00 in0.0 mm 0.01 in0.3 mm
07:32 PM 28.0°F-2.2°C 23.9°F-4.5°C 84% 0.9 mph NW1.4 kmh NW 2.0 mph3.2 kmh 30.18 in1022.0 mb - 0.00 in0.0 mm 0.01 in0.3 mm
07:27 PM 28.0°F-2.2°C 24.1°F-4.4°C 85% 0.9 mph 1.4 kmh -- 30.18 in1022.0 mb - 0.00 in0.0 mm 0.01 in0.3 mm
07:22 PM 27.7°F-2.4°C 23.7°F-4.6°C 85% 2.0 mph N3.2 kmh N -- 30.18 in1022.0 mb - 0.00 in0.0 mm 0.01 in0.3 mm
07:17 PM 27.7°F-2.4°C 23.7°F-4.6°C 85% 2.0 mph NW3.2 kmh NW 4.9 mph7.9 kmh 30.18 in1022.0 mb - 0.00 in0.0 mm 0.01 in0.3 mm
07:12 PM 27.1°F-2.7°C 23.0°F-5.0°C 84% 0.9 mph NW1.4 kmh NW 0.9 mph1.4 kmh 30.18 in1022.0 mb - 0.00 in0.0 mm 0.01 in0.3 mm
07:07 PM 27.1°F-2.7°C 23.0°F-5.0°C 84% 0.9 mph W1.4 kmh W 2.0 mph3.2 kmh 30.18 in1022.0 mb - 0.00 in0.0 mm 0.01 in0.3 mm
07:02 PM 27.3°F-2.6°C 23.4°F-4.8°C 85% 0.9 mph NNW1.4 kmh NNW -- 30.18 in1022.0 mb - 0.00 in0.0 mm 0.01 in0.3 mm
06:57 PM 27.3°F-2.6°C 23.4°F-4.8°C 85% 2.0 mph NNW3.2 kmh NNW 2.9 mph4.7 kmh 30.18 in1022.0 mb - 0.00 in0.0 mm 0.01 in0.3 mm
06:52 PM 26.8°F-2.9°C 22.8°F-5.1°C 85% 2.0 mph NW3.2 kmh NW -- 30.18 in1022.0 mb - 0.00 in0.0 mm 0.01 in0.3 mm
06:47 PM 26.1°F-3.3°C 22.1°F-5.5°C 85% 2.0 mph ENE3.2 kmh ENE 2.0 mph3.2 kmh 30.18 in1022.0 mb - 0.00 in0.0 mm 0.01 in0.3 mm
06:42 PM 26.1°F-3.3°C 21.9°F-5.6°C 84% 0.9 mph NW1.4 kmh NW 2.0 mph3.2 kmh 30.18 in1022.0 mb - 0.00 in0.0 mm 0.01 in0.3 mm
06:37 PM 26.4°F-3.1°C 22.3°F-5.4°C 84% 2.0 mph NW3.2 kmh NW 2.9 mph4.7 kmh 30.18 in1022.0 mb - 0.00 in0.0 mm 0.01 in0.3 mm
06:32 PM 26.8°F-2.9°C 22.3°F-5.4°C 83% 0.9 mph NNW1.4 kmh NNW 2.9 mph4.7 kmh 30.18 in1022.0 mb - 0.00 in0.0 mm 0.01 in0.3 mm
06:27 PM 27.0°F-2.8°C 22.5°F-5.3°C 83% 0.9 mph NW1.4 kmh NW 2.0 mph3.2 kmh 30.18 in1022.0 mb - 0.00 in0.0 mm 0.01 in0.3 mm
06:22 PM 27.1°F-2.7°C 23.0°F-5.0°C 84% 0.9 mph NW1.4 kmh NW -- 30.18 in1022.0 mb - 0.00 in0.0 mm 0.01 in0.3 mm
06:17 PM 27.1°F-2.7°C 23.0°F-5.0°C 84% 2.0 mph SSE3.2 kmh SSE 0.9 mph1.4 kmh 30.18 in1022.0 mb - 0.00 in0.0 mm 0.01 in0.3 mm
06:12 PM 27.1°F-2.7°C 23.0°F-5.0°C 84% 0.9 mph N1.4 kmh N -- 30.18 in1022.0 mb - 0.00 in0.0 mm 0.01 in0.3 mm
06:07 PM 27.0°F-2.8°C 22.8°F-5.1°C 84% Calm Calm 4.9 mph7.9 kmh 30.18 in1022.0 mb - 0.00 in0.0 mm 0.01 in0.3 mm
06:02 PM 27.1°F-2.7°C 23.0°F-5.0°C 84% Calm Calm -- 30.18 in1022.0 mb - 0.00 in0.0 mm 0.01 in0.3 mm
05:57 PM 27.1°F-2.7°C 22.6°F-5.2°C 83% Calm Calm -- 30.18 in1022.0 mb - 0.00 in0.0 mm 0.01 in0.3 mm
05:52 PM 27.1°F-2.7°C 22.6°F-5.2°C 83% Calm Calm -- 30.18 in1022.0 mb - 0.00 in0.0 mm 0.01 in0.3 mm
05:47 PM 27.5°F-2.5°C 22.8°F-5.1°C 82% Calm Calm -- 30.19 in1022.4 mb - 0.00 in0.0 mm 0.01 in0.3 mm
05:42 PM 27.9°F-2.3°C 22.8°F-5.1°C 81% 0.9 mph WNW1.4 kmh WNW -- 30.18 in1022.0 mb - 0.00 in0.0 mm 0.01 in0.3 mm
05:37 PM 28.4°F-2.0°C 23.0°F-5.0°C 80% 0.9 mph W1.4 kmh W -- 30.19 in1022.4 mb - 0.00 in0.0 mm 0.01 in0.3 mm
05:32 PM 28.8°F-1.8°C 23.7°F-4.6°C 81% 0.9 mph NW1.4 kmh NW 4.0 mph6.4 kmh 30.18 in1022.0 mb - 0.00 in0.0 mm 0.01 in0.3 mm
05:27 PM 28.9°F-1.7°C 23.9°F-4.5°C 81% 2.0 mph NNW3.2 kmh NNW -- 30.18 in1022.0 mb - 0.00 in0.0 mm 0.01 in0.3 mm
05:22 PM 28.9°F-1.7°C 23.5°F-4.7°C 80% 2.9 mph N4.7 kmh N -- 30.18 in1022.0 mb - 0.00 in0.0 mm 0.01 in0.3 mm
05:17 PM 29.3°F-1.5°C 23.9°F-4.5°C 80% 2.0 mph NNW3.2 kmh NNW 4.0 mph6.4 kmh 30.18 in1022.0 mb - 0.00 in0.0 mm 0.01 in0.3 mm
05:12 PM 29.5°F-1.4°C 24.1°F-4.4°C 80% Calm Calm 2.0 mph3.2 kmh 30.18 in1022.0 mb - 0.00 in0.0 mm 0.01 in0.3 mm
05:07 PM 29.7°F-1.3°C 23.9°F-4.5°C 79% 2.0 mph ENE3.2 kmh ENE -- 30.18 in1022.0 mb - 0.00 in0.0 mm 0.01 in0.3 mm
05:02 PM 29.8°F-1.2°C 24.1°F-4.4°C 79% 2.9 mph NW4.7 kmh NW 2.9 mph4.7 kmh 30.18 in1022.0 mb - 0.00 in0.0 mm 0.01 in0.3 mm
04:57 PM 29.8°F-1.2°C 24.1°F-4.4°C 79% 0.9 mph 1.4 kmh 6.0 mph9.7 kmh 30.18 in1022.0 mb - 0.00 in0.0 mm 0.01 in0.3 mm
04:52 PM 30.0°F-1.1°C 24.1°F-4.4°C 78% 2.0 mph N3.2 kmh N -- 30.18 in1022.0 mb - 0.00 in0.0 mm 0.01 in0.3 mm
04:47 PM 30.2°F-1.0°C 24.3°F-4.3°C 78% 0.9 mph NW1.4 kmh NW 4.0 mph6.4 kmh 30.18 in1022.0 mb - 0.00 in0.0 mm 0.01 in0.3 mm
04:42 PM 30.4°F-0.9°C 24.3°F-4.3°C 78% 0.9 mph NW1.4 kmh NW -- 30.18 in1022.0 mb - 0.00 in0.0 mm 0.01 in0.3 mm
04:37 PM 30.6°F-0.8°C 24.4°F-4.2°C 78% 0.9 mph W1.4 kmh W -- 30.18 in1022.0 mb - 0.00 in0.0 mm 0.01 in0.3 mm
04:32 PM 30.6°F-0.8°C 24.4°F-4.2°C 78% Calm Calm 4.0 mph6.4 kmh 30.19 in1022.4 mb - 0.00 in0.0 mm 0.01 in0.3 mm
04:27 PM 30.7°F-0.7°C 24.6°F-4.1°C 78% Calm Calm -- 30.19 in1022.4 mb - 0.00 in0.0 mm 0.01 in0.3 mm
04:22 PM 30.7°F-0.7°C 24.6°F-4.1°C 78% 0.9 mph SSW1.4 kmh SSW 0.9 mph1.4 kmh 30.19 in1022.4 mb - 0.00 in0.0 mm 0.01 in0.3 mm
04:17 PM 30.7°F-0.7°C 24.6°F-4.1°C 78% 0.9 mph NW1.4 kmh NW -- 30.19 in1022.4 mb - 0.00 in0.0 mm 0.01 in0.3 mm
04:12 PM 30.9°F-0.6°C 24.8°F-4.0°C 78% Calm Calm -- 30.19 in1022.4 mb - 0.00 in0.0 mm 0.01 in0.3 mm
04:07 PM 30.9°F-0.6°C 24.8°F-4.0°C 78% 0.9 mph SW1.4 kmh SW -- 30.19 in1022.4 mb - 0.00 in0.0 mm 0.01 in0.3 mm
04:02 PM 31.1°F-0.5°C 25.0°F-3.9°C 78% 2.0 mph NW3.2 kmh NW -- 30.19 in1022.4 mb - 0.00 in0.0 mm 0.01 in0.3 mm
03:57 PM 31.1°F-0.5°C 25.0°F-3.9°C 78% 2.0 mph SE3.2 kmh SE -- 30.19 in1022.4 mb - 0.00 in0.0 mm 0.01 in0.3 mm
03:52 PM 31.1°F-0.5°C 25.0°F-3.9°C 78% 2.0 mph SE3.2 kmh SE 4.0 mph6.4 kmh 30.19 in1022.4 mb - 0.00 in0.0 mm 0.01 in0.3 mm
03:47 PM 31.1°F-0.5°C 25.0°F-3.9°C 78% 2.0 mph S3.2 kmh S 0.9 mph1.4 kmh 30.19 in1022.4 mb - 0.00 in0.0 mm 0.01 in0.3 mm
03:42 PM 31.1°F-0.5°C 25.0°F-3.9°C 78% 2.0 mph S3.2 kmh S 2.9 mph4.7 kmh 30.19 in1022.4 mb - 0.00 in0.0 mm 0.01 in0.3 mm
03:37 PM 31.1°F-0.5°C 25.0°F-3.9°C 78% 0.9 mph ENE1.4 kmh ENE 8.9 mph14.3 kmh 30.19 in1022.4 mb - 0.00 in0.0 mm 0.01 in0.3 mm
03:32 PM 30.9°F-0.6°C 24.8°F-4.0°C 78% 2.9 mph SSE4.7 kmh SSE -- 30.19 in1022.4 mb - 0.00 in0.0 mm 0.01 in0.3 mm
03:27 PM 30.9°F-0.6°C 24.8°F-4.0°C 78% 2.9 mph WSW4.7 kmh WSW -- 30.19 in1022.4 mb - 0.00 in0.0 mm 0.01 in0.3 mm
03:22 PM 31.1°F-0.5°C 25.0°F-3.9°C 78% 2.9 mph S4.7 kmh S 4.9 mph7.9 kmh 30.19 in1022.4 mb - 0.00 in0.0 mm 0.01 in0.3 mm
03:17 PM 31.1°F-0.5°C 25.3°F-3.7°C 79% 2.0 mph SSE3.2 kmh SSE -- 30.19 in1022.4 mb - 0.00 in0.0 mm 0.01 in0.3 mm
03:12 PM 30.9°F-0.6°C 25.2°F-3.8°C 79% 2.0 mph S3.2 kmh S -- 30.19 in1022.4 mb - 0.00 in0.0 mm 0.01 in0.3 mm
03:07 PM 30.9°F-0.6°C 25.2°F-3.8°C 79% 2.0 mph SW3.2 kmh SW 4.9 mph7.9 kmh 30.19 in1022.4 mb - 0.00 in0.0 mm 0.01 in0.3 mm
03:02 PM 30.7°F-0.7°C 25.0°F-3.9°C 79% 0.9 mph SSW1.4 kmh SSW -- 30.19 in1022.4 mb - 0.00 in0.0 mm 0.01 in0.3 mm
02:57 PM 30.9°F-0.6°C 24.8°F-4.0°C 78% 2.0 mph W3.2 kmh W -- 30.19 in1022.4 mb - 0.00 in0.0 mm 0.01 in0.3 mm
02:52 PM 30.9°F-0.6°C 24.8°F-4.0°C 78% 0.9 mph WSW1.4 kmh WSW -- 30.19 in1022.4 mb - 0.00 in0.0 mm 0.01 in0.3 mm
02:47 PM 30.9°F-0.6°C 24.8°F-4.0°C 78% 2.0 mph SSW3.2 kmh SSW 2.0 mph3.2 kmh 30.20 in1022.7 mb - 0.00 in0.0 mm 0.01 in0.3 mm
02:42 PM 31.1°F-0.5°C 25.0°F-3.9°C 78% 4.0 mph SW6.4 kmh SW 4.9 mph7.9 kmh 30.20 in1022.7 mb - 0.00 in0.0 mm 0.01 in0.3 mm
02:37 PM 31.5°F-0.3°C 25.3°F-3.7°C 78% 2.9 mph SW4.7 kmh SW 0.9 mph1.4 kmh 30.20 in1022.7 mb - 0.00 in0.0 mm 0.01 in0.3 mm
02:32 PM 31.8°F-0.1°C 25.5°F-3.6°C 77% 2.0 mph WSW3.2 kmh WSW -- 30.20 in1022.7 mb - 0.00 in0.0 mm 0.01 in0.3 mm
02:27 PM 31.6°F-0.2°C 25.5°F-3.6°C 78% 2.9 mph WSW4.7 kmh WSW -- 30.20 in1022.7 mb - 0.00 in0.0 mm 0.01 in0.3 mm
02:22 PM 31.5°F-0.3°C 25.3°F-3.7°C 78% 2.9 mph W4.7 kmh W 2.0 mph3.2 kmh 30.20 in1022.7 mb - 0.00 in0.0 mm 0.01 in0.3 mm
02:17 PM 31.5°F-0.3°C 25.3°F-3.7°C 78% 2.0 mph SW3.2 kmh SW 4.0 mph6.4 kmh 30.20 in1022.7 mb - 0.00 in0.0 mm 0.01 in0.3 mm
02:12 PM 31.8°F-0.1°C 25.7°F-3.5°C 78% 2.0 mph SW3.2 kmh SW 4.9 mph7.9 kmh 30.20 in1022.7 mb - 0.00 in0.0 mm 0.01 in0.3 mm
02:07 PM 32.0°F0.0°C 26.2°F-3.2°C 79% 2.0 mph SW3.2 kmh SW 0.9 mph1.4 kmh 30.21 in1023.0 mb - 0.00 in0.0 mm 0.01 in0.3 mm
02:02 PM 31.8°F-0.1°C 25.7°F-3.5°C 78% 2.0 mph SW3.2 kmh SW -- 30.21 in1023.0 mb - 0.00 in0.0 mm 0.01 in0.3 mm
01:57 PM 31.6°F-0.2°C 25.9°F-3.4°C 79% 2.0 mph SW3.2 kmh SW 0.9 mph1.4 kmh 30.21 in1023.0 mb - 0.00 in0.0 mm 0.01 in0.3 mm
01:52 PM 31.8°F-0.1°C 26.1°F-3.3°C 79% 0.9 mph WSW1.4 kmh WSW 2.0 mph3.2 kmh 30.21 in1023.0 mb - 0.00 in0.0 mm 0.01 in0.3 mm
01:47 PM 31.6°F-0.2°C 26.2°F-3.2°C 80% 0.9 mph W1.4 kmh W 0.9 mph1.4 kmh 30.21 in1023.0 mb - 0.00 in0.0 mm 0.01 in0.3 mm
01:42 PM 31.5°F-0.3°C 26.1°F-3.3°C 80% 0.9 mph SW1.4 kmh SW 2.0 mph3.2 kmh 30.22 in1023.4 mb - 0.00 in0.0 mm 0.01 in0.3 mm
01:37 PM 31.5°F-0.3°C 26.1°F-3.3°C 80% 2.0 mph SSW3.2 kmh SSW -- 30.22 in1023.4 mb - 0.00 in0.0 mm 0.01 in0.3 mm
01:32 PM 31.1°F-0.5°C 25.7°F-3.5°C 80% 2.0 mph NW3.2 kmh NW -- 30.22 in1023.4 mb - 0.00 in0.0 mm 0.01 in0.3 mm
01:27 PM 31.3°F-0.4°C 25.5°F-3.6°C 79% 2.9 mph S4.7 kmh S 0.9 mph1.4 kmh 30.23 in1023.7 mb - 0.00 in0.0 mm 0.01 in0.3 mm
01:22 PM 31.3°F-0.4°C 25.5°F-3.6°C 79% 4.0 mph WSW6.4 kmh WSW 0.9 mph1.4 kmh 30.23 in1023.7 mb - 0.00 in0.0 mm 0.01 in0.3 mm
01:17 PM 31.6°F-0.2°C 25.5°F-3.6°C 78% 4.0 mph SSW6.4 kmh SSW 2.9 mph4.7 kmh 30.23 in1023.7 mb - 0.00 in0.0 mm 0.01 in0.3 mm
01:12 PM 32.5°F0.3°C 26.4°F-3.1°C 78% 2.0 mph SW3.2 kmh SW 2.0 mph3.2 kmh 30.23 in1023.7 mb - 0.00 in0.0 mm 0.01 in0.3 mm
01:07 PM 32.9°F0.5°C 26.8°F-2.9°C 78% 4.0 mph S6.4 kmh S 0.9 mph1.4 kmh 30.23 in1023.7 mb - 0.00 in0.0 mm 0.01 in0.3 mm
01:02 PM 32.9°F0.5°C 26.4°F-3.1°C 77% 4.9 mph SSW7.9 kmh SSW 0.9 mph1.4 kmh 30.23 in1023.7 mb - 0.00 in0.0 mm 0.01 in0.3 mm
12:57 PM 33.4°F0.8°C 26.8°F-2.9°C 76% 4.0 mph SW6.4 kmh SW 2.0 mph3.2 kmh 30.23 in1023.7 mb - 0.00 in0.0 mm 0.01 in0.3 mm
12:52 PM 34.2°F1.2°C 27.7°F-2.4°C 77% 4.9 mph S7.9 kmh S 0.9 mph1.4 kmh 30.23 in1023.7 mb - 0.00 in0.0 mm 0.01 in0.3 mm
12:47 PM 34.0°F1.1°C 27.1°F-2.7°C 76% 4.0 mph SSE6.4 kmh SSE 4.0 mph6.4 kmh 30.23 in1023.7 mb - 0.00 in0.0 mm 0.01 in0.3 mm
12:42 PM 34.3°F1.3°C 27.5°F-2.5°C 76% 4.9 mph SSE7.9 kmh SSE 6.9 mph11.1 kmh 30.24 in1024.0 mb - 0.00 in0.0 mm 0.01 in0.3 mm
12:37 PM 34.2°F1.2°C 27.1°F-2.7°C 75% 6.0 mph SSE9.7 kmh SSE 4.0 mph6.4 kmh 30.24 in1024.0 mb - 0.00 in0.0 mm 0.01 in0.3 mm
12:32 PM 34.2°F1.2°C 27.3°F-2.6°C 76% 4.9 mph S7.9 kmh S 8.1 mph13.0 kmh 30.24 in1024.0 mb - 0.00 in0.0 mm 0.01 in0.3 mm
12:27 PM 34.2°F1.2°C 26.8°F-2.9°C 74% 4.0 mph SSW6.4 kmh SSW 2.0 mph3.2 kmh 30.24 in1024.0 mb - 0.00 in0.0 mm 0.01 in0.3 mm
12:22 PM 34.2°F1.2°C 27.1°F-2.7°C 75% 4.0 mph S6.4 kmh S -- 30.24 in1024.0 mb - 0.00 in0.0 mm 0.01 in0.3 mm
12:17 PM 34.2°F1.2°C 26.4°F-3.1°C 73% 2.9 mph SSW4.7 kmh SSW 2.0 mph3.2 kmh 30.24 in1024.0 mb - 0.00 in0.0 mm 0.01 in0.3 mm
12:12 PM 34.2°F1.2°C 26.8°F-2.9°C 74% 2.0 mph SSE3.2 kmh SSE 2.0 mph3.2 kmh 30.24 in1024.0 mb - 0.00 in0.0 mm 0.01 in0.3 mm
12:07 PM 34.2°F1.2°C 26.8°F-2.9°C 74% 2.0 mph S3.2 kmh S 2.0 mph3.2 kmh 30.24 in1024.0 mb - 0.00 in0.0 mm 0.01 in0.3 mm
12:02 PM 34.2°F1.2°C 26.8°F-2.9°C 74% 2.9 mph S4.7 kmh S 4.0 mph6.4 kmh 30.25 in1024.4 mb - 0.00 in0.0 mm 0.01 in0.3 mm
11:57 AM 34.0°F1.1°C 26.2°F-3.2°C 73% 4.0 mph SSE6.4 kmh SSE 4.9 mph7.9 kmh 30.25 in1024.4 mb - 0.00 in0.0 mm 0.01 in0.3 mm
11:52 AM 34.3°F1.3°C 27.0°F-2.8°C 74% 4.0 mph S6.4 kmh S 2.9 mph4.7 kmh 30.25 in1024.4 mb - 0.00 in0.0 mm 0.01 in0.3 mm
11:47 AM 34.0°F1.1°C 26.2°F-3.2°C 73% 2.9 mph S4.7 kmh S 2.9 mph4.7 kmh 30.25 in1024.4 mb - 0.00 in0.0 mm 0.01 in0.3 mm
11:42 AM 34.2°F1.2°C 26.4°F-3.1°C 73% 2.0 mph S3.2 kmh S 2.9 mph4.7 kmh 30.25 in1024.4 mb - 0.00 in0.0 mm 0.01 in0.3 mm
11:37 AM 34.0°F1.1°C 25.9°F-3.4°C 72% 2.0 mph SSW3.2 kmh SSW 2.9 mph4.7 kmh 30.25 in1024.4 mb - 0.00 in0.0 mm 0.01 in0.3 mm
11:32 AM 34.0°F1.1°C 26.2°F-3.2°C 73% 2.0 mph S3.2 kmh S 2.0 mph3.2 kmh 30.25 in1024.4 mb - 0.00 in0.0 mm 0.01 in0.3 mm
11:27 AM 34.0°F1.1°C 25.9°F-3.4°C 72% 2.0 mph SSW3.2 kmh SSW 4.0 mph6.4 kmh 30.25 in1024.4 mb - 0.00 in0.0 mm 0.01 in0.3 mm
11:22 AM 34.0°F1.1°C 25.9°F-3.4°C 72% 2.0 mph S3.2 kmh S 0.9 mph1.4 kmh 30.26 in1024.7 mb - 0.00 in0.0 mm 0.01 in0.3 mm
11:17 AM 33.8°F1.0°C 25.7°F-3.5°C 72% 2.0 mph S3.2 kmh S 2.0 mph3.2 kmh 30.26 in1024.7 mb - 0.00 in0.0 mm 0.01 in0.3 mm
11:12 AM 33.6°F0.9°C 25.5°F-3.6°C 72% 0.9 mph SSW1.4 kmh SSW 2.0 mph3.2 kmh 30.26 in1024.7 mb - 0.00 in0.0 mm 0.01 in0.3 mm
11:07 AM 33.6°F0.9°C 25.5°F-3.6°C 72% Calm Calm 2.9 mph4.7 kmh 30.26 in1024.7 mb - 0.00 in0.0 mm 0.01 in0.3 mm
11:02 AM 33.3°F0.7°C 25.5°F-3.6°C 73% Calm Calm -- 30.26 in1024.7 mb - 0.00 in0.0 mm 0.01 in0.3 mm
10:57 AM 32.7°F0.4°C 25.0°F-3.9°C 73% Calm Calm -- 30.26 in1024.7 mb - 0.00 in0.0 mm 0.00 in0.0 mm
10:52 AM 32.5°F0.3°C 25.2°F-3.8°C 74% Calm Calm -- 30.26 in1024.7 mb - 0.00 in0.0 mm 0.00 in0.0 mm
10:47 AM 32.2°F0.1°C 25.2°F-3.8°C 75% Calm Calm -- 30.26 in1024.7 mb - 0.00 in0.0 mm 0.00 in0.0 mm
10:42 AM 31.6°F-0.2°C 25.0°F-3.9°C 76% Calm Calm -- 30.26 in1024.7 mb - 0.00 in0.0 mm 0.00 in0.0 mm
10:37 AM 31.5°F-0.3°C 25.2°F-3.8°C 77% Calm Calm -- 30.27 in1025.1 mb - 0.00 in0.0 mm 0.00 in0.0 mm
10:32 AM 30.0°F-1.1°C 24.6°F-4.1°C 80% Calm Calm -- 30.27 in1025.1 mb - 0.00 in0.0 mm 0.00 in0.0 mm
10:27 AM 29.8°F-1.2°C 24.1°F-4.4°C 79% Calm Calm -- 30.27 in1025.1 mb - 0.00 in0.0 mm 0.00 in0.0 mm
10:22 AM 29.1°F-1.6°C 23.4°F-4.8°C 79% Calm Calm -- 30.27 in1025.1 mb - 0.00 in0.0 mm 0.00 in0.0 mm
10:17 AM 28.8°F-1.8°C 23.0°F-5.0°C 79% Calm Calm -- 30.27 in1025.1 mb - 0.00 in0.0 mm 0.00 in0.0 mm
10:12 AM 28.8°F-1.8°C 23.4°F-4.8°C 80% Calm Calm -- 30.27 in1025.1 mb - 0.00 in0.0 mm 0.00 in0.0 mm
10:07 AM 28.4°F-2.0°C 23.0°F-5.0°C 80% Calm Calm -- 30.27 in1025.1 mb - 0.00 in0.0 mm 0.00 in0.0 mm
10:02 AM 28.4°F-2.0°C 23.0°F-5.0°C 80% Calm Calm -- 30.27 in1025.1 mb - 0.00 in0.0 mm 0.00 in0.0 mm
09:57 AM 28.2°F-2.1°C 22.8°F-5.1°C 80% Calm Calm -- 30.27 in1025.1 mb - 0.00 in0.0 mm 0.00 in0.0 mm
09:52 AM 28.0°F-2.2°C 22.6°F-5.2°C 80% Calm Calm -- 30.28 in1025.4 mb - 0.00 in0.0 mm 0.00 in0.0 mm
09:47 AM 27.3°F-2.6°C 22.6°F-5.2°C 82% Calm Calm -- 30.28 in1025.4 mb - 0.00 in0.0 mm 0.00 in0.0 mm
09:42 AM 26.6°F-3.0°C 22.1°F-5.5°C 83% Calm Calm -- 30.27 in1025.1 mb - 0.00 in0.0 mm 0.00 in0.0 mm
09:37 AM 26.1°F-3.3°C 21.9°F-5.6°C 84% Calm Calm -- 30.28 in1025.4 mb - 0.00 in0.0 mm 0.00 in0.0 mm
09:32 AM 26.1°F-3.3°C 21.9°F-5.6°C 84% Calm Calm -- 30.28 in1025.4 mb - 0.00 in0.0 mm 0.00 in0.0 mm
09:27 AM 25.7°F-3.5°C 21.7°F-5.7°C 85% Calm Calm -- 30.28 in1025.4 mb - 0.00 in0.0 mm 0.00 in0.0 mm
09:22 AM 25.3°F-3.7°C 21.4°F-5.9°C 85% Calm Calm -- 30.28 in1025.4 mb - 0.00 in0.0 mm 0.00 in0.0 mm
09:17 AM 25.0°F-3.9°C 21.2°F-6.0°C 85% Calm Calm -- 30.28 in1025.4 mb - 0.00 in0.0 mm 0.00 in0.0 mm
09:12 AM 24.8°F-4.0°C 21.6°F-5.8°C 87% Calm Calm -- 30.28 in1025.4 mb - 0.00 in0.0 mm 0.00 in0.0 mm
09:07 AM 23.7°F-4.6°C 20.5°F-6.4°C 87% Calm Calm -- 30.28 in1025.4 mb - 0.00 in0.0 mm 0.00 in0.0 mm
09:02 AM 23.2°F-4.9°C 20.1°F-6.6°C 88% Calm Calm -- 30.28 in1025.4 mb - 0.00 in0.0 mm 0.00 in0.0 mm
08:57 AM 21.9°F-5.6°C 18.9°F-7.3°C 88% Calm Calm -- 30.28 in1025.4 mb - 0.00 in0.0 mm 0.00 in0.0 mm
08:52 AM 21.6°F-5.8°C 18.3°F-7.6°C 87% Calm Calm -- 30.28 in1025.4 mb - 0.00 in0.0 mm 0.00 in0.0 mm
08:47 AM 21.6°F-5.8°C 18.3°F-7.6°C 87% Calm Calm -- 30.28 in1025.4 mb - 0.00 in0.0 mm 0.00 in0.0 mm
08:42 AM 21.6°F-5.8°C 18.3°F-7.6°C 87% Calm Calm -- 30.28 in1025.4 mb - 0.00 in0.0 mm 0.00 in0.0 mm
08:37 AM 21.6°F-5.8°C 18.3°F-7.6°C 87% Calm Calm -- 30.27 in1025.1 mb - 0.00 in0.0 mm 0.00 in0.0 mm
08:32 AM 21.6°F-5.8°C 18.3°F-7.6°C 87% Calm Calm -- 30.28 in1025.4 mb - 0.00 in0.0 mm 0.00 in0.0 mm
08:27 AM 21.6°F-5.8°C 18.3°F-7.6°C 87% Calm Calm -- 30.28 in1025.4 mb - 0.00 in0.0 mm 0.00 in0.0 mm
08:22 AM 21.6°F-5.8°C 18.3°F-7.6°C 87% Calm Calm -- 30.28 in1025.4 mb - 0.00 in0.0 mm 0.00 in0.0 mm
08:17 AM 21.6°F-5.8°C 18.3°F-7.6°C 87% Calm Calm -- 30.28 in1025.4 mb - 0.00 in0.0 mm 0.00 in0.0 mm
08:12 AM 21.6°F-5.8°C 18.3°F-7.6°C 87% Calm Calm -- 30.27 in1025.1 mb - 0.00 in0.0 mm 0.00 in0.0 mm
08:07 AM 21.6°F-5.8°C 18.3°F-7.6°C 87% Calm Calm -- 30.27 in1025.1 mb - 0.00 in0.0 mm 0.00 in0.0 mm
08:02 AM 21.6°F-5.8°C 18.3°F-7.6°C 87% Calm Calm -- 30.27 in1025.1 mb - 0.00 in0.0 mm 0.00 in0.0 mm
07:57 AM 21.7°F-5.7°C 18.5°F-7.5°C 87% Calm Calm -- 30.27 in1025.1 mb - 0.00 in0.0 mm 0.00 in0.0 mm
07:52 AM 21.7°F-5.7°C 18.5°F-7.5°C 87% Calm Calm -- 30.27 in1025.1 mb - 0.00 in0.0 mm 0.00 in0.0 mm
07:47 AM 21.7°F-5.7°C 18.5°F-7.5°C 87% Calm Calm -- 30.27 in1025.1 mb - 0.00 in0.0 mm 0.00 in0.0 mm
07:42 AM 21.7°F-5.7°C 18.5°F-7.5°C 87% Calm Calm -- 30.27 in1025.1 mb - 0.00 in0.0 mm 0.00 in0.0 mm
07:37 AM 21.9°F-5.6°C 18.7°F-7.4°C 87% Calm Calm -- 30.27 in1025.1 mb - 0.00 in0.0 mm 0.00 in0.0 mm
07:32 AM 21.7°F-5.7°C 18.5°F-7.5°C 87% Calm Calm -- 30.27 in1025.1 mb - 0.00 in0.0 mm 0.00 in0.0 mm
07:27 AM 21.7°F-5.7°C 18.5°F-7.5°C 87% Calm Calm -- 30.27 in1025.1 mb - 0.00 in0.0 mm 0.00 in0.0 mm
07:22 AM 21.7°F-5.7°C 18.5°F-7.5°C 87% Calm Calm 0.9 mph1.4 kmh 30.27 in1025.1 mb - 0.00 in0.0 mm 0.00 in0.0 mm
07:17 AM 21.7°F-5.7°C 18.5°F-7.5°C 87% Calm Calm -- 30.27 in1025.1 mb - 0.00 in0.0 mm 0.00 in0.0 mm
07:12 AM 21.7°F-5.7°C 18.5°F-7.5°C 87% Calm Calm -- 30.27 in1025.1 mb - 0.00 in0.0 mm 0.00 in0.0 mm
07:07 AM 21.9°F-5.6°C 18.7°F-7.4°C 87% Calm Calm -- 30.27 in1025.1 mb - 0.00 in0.0 mm 0.00 in0.0 mm
07:02 AM 21.9°F-5.6°C 18.7°F-7.4°C 87% Calm Calm -- 30.27 in1025.1 mb - 0.00 in0.0 mm 0.00 in0.0 mm
06:57 AM 21.9°F-5.6°C 18.7°F-7.4°C 87% Calm Calm -- 30.27 in1025.1 mb - 0.00 in0.0 mm 0.00 in0.0 mm
06:52 AM 21.9°F-5.6°C 18.7°F-7.4°C 87% Calm Calm -- 30.27 in1025.1 mb - 0.00 in0.0 mm 0.00 in0.0 mm
06:47 AM 22.1°F-5.5°C 18.9°F-7.3°C 87% Calm Calm -- 30.27 in1025.1 mb - 0.00 in0.0 mm 0.00 in0.0 mm
06:42 AM 22.1°F-5.5°C 18.9°F-7.3°C 87% Calm Calm -- 30.27 in1025.1 mb - 0.00 in0.0 mm 0.00 in0.0 mm
06:37 AM 22.1°F-5.5°C 18.9°F-7.3°C 87% Calm Calm -- 30.27 in1025.1 mb - 0.00 in0.0 mm 0.00 in0.0 mm
06:32 AM 22.1°F-5.5°C 18.9°F-7.3°C 87% Calm Calm 0.9 mph1.4 kmh 30.27 in1025.1 mb - 0.00 in0.0 mm 0.00 in0.0 mm
06:27 AM 22.1°F-5.5°C 18.9°F-7.3°C 87% Calm Calm -- 30.27 in1025.1 mb - 0.00 in0.0 mm 0.00 in0.0 mm
06:22 AM 22.1°F-5.5°C 18.9°F-7.3°C 87% Calm Calm -- 30.27 in1025.1 mb - 0.00 in0.0 mm 0.00 in0.0 mm
06:17 AM 22.3°F-5.4°C 19.0°F-7.2°C 87% Calm Calm -- 30.27 in1025.1 mb - 0.00 in0.0 mm 0.00 in0.0 mm
06:12 AM 22.3°F-5.4°C 19.0°F-7.2°C 87% Calm Calm -- 30.27 in1025.1 mb - 0.00 in0.0 mm 0.00 in0.0 mm
06:07 AM 22.3°F-5.4°C 19.0°F-7.2°C 87% Calm Calm -- 30.27 in1025.1 mb - 0.00 in0.0 mm 0.00 in0.0 mm
06:02 AM 22.3°F-5.4°C 19.0°F-7.2°C 87% 0.9 mph N1.4 kmh N -- 30.27 in1025.1 mb - 0.00 in0.0 mm 0.00 in0.0 mm
05:57 AM 22.1°F-5.5°C 18.9°F-7.3°C 87% 0.9 mph N1.4 kmh N -- 30.27 in1025.1 mb - 0.00 in0.0 mm 0.00 in0.0 mm
05:52 AM 22.1°F-5.5°C 18.9°F-7.3°C 87% Calm Calm 2.0 mph3.2 kmh 30.27 in1025.1 mb - 0.00 in0.0 mm 0.00 in0.0 mm
05:47 AM 22.1°F-5.5°C 18.9°F-7.3°C 87% Calm Calm -- 30.27 in1025.1 mb - 0.00 in0.0 mm 0.00 in0.0 mm
05:42 AM 22.3°F-5.4°C 19.0°F-7.2°C 87% Calm Calm -- 30.27 in1025.1 mb - 0.00 in0.0 mm 0.00 in0.0 mm
05:37 AM 22.3°F-5.4°C 19.0°F-7.2°C 87% Calm Calm 2.0 mph3.2 kmh 30.27 in1025.1 mb - 0.00 in0.0 mm 0.00 in0.0 mm
05:32 AM 22.3°F-5.4°C 19.0°F-7.2°C 87% Calm Calm -- 30.27 in1025.1 mb - 0.00 in0.0 mm 0.00 in0.0 mm
05:27 AM 22.5°F-5.3°C 19.2°F-7.1°C 87% Calm Calm -- 30.27 in1025.1 mb - 0.00 in0.0 mm 0.00 in0.0 mm
05:22 AM 22.6°F-5.2°C 19.4°F-7.0°C 87% Calm Calm -- 30.27 in1025.1 mb - 0.00 in0.0 mm 0.00 in0.0 mm
05:17 AM 22.6°F-5.2°C 19.4°F-7.0°C 87% Calm Calm -- 30.27 in1025.1 mb - 0.00 in0.0 mm 0.00 in0.0 mm
05:12 AM 22.8°F-5.1°C 19.6°F-6.9°C 87% Calm Calm -- 30.27 in1025.1 mb - 0.00 in0.0 mm 0.00 in0.0 mm
05:07 AM 23.0°F-5.0°C 19.8°F-6.8°C 87% Calm Calm -- 30.27 in1025.1 mb - 0.00 in0.0 mm 0.00 in0.0 mm
05:02 AM 23.2°F-4.9°C 19.9°F-6.7°C 87% Calm Calm -- 30.27 in1025.1 mb - 0.00 in0.0 mm 0.00 in0.0 mm
04:57 AM 23.2°F-4.9°C 20.1°F-6.6°C 88% 0.9 mph NNE1.4 kmh NNE -- 30.27 in1025.1 mb - 0.00 in0.0 mm 0.00 in0.0 mm
04:52 AM 23.4°F-4.8°C 20.3°F-6.5°C 88% 0.9 mph NNE1.4 kmh NNE -- 30.27 in1025.1 mb - 0.00 in0.0 mm 0.00 in0.0 mm
04:47 AM 23.4°F-4.8°C 20.3°F-6.5°C 88% 0.9 mph NE1.4 kmh NE 0.9 mph1.4 kmh 30.27 in1025.1 mb - 0.00 in0.0 mm 0.00 in0.0 mm
04:42 AM 23.2°F-4.9°C 20.1°F-6.6°C 88% 2.9 mph NNE4.7 kmh NNE 2.0 mph3.2 kmh 30.27 in1025.1 mb - 0.00 in0.0 mm 0.00 in0.0 mm
04:37 AM 22.8°F-5.1°C 19.8°F-6.8°C 88% 2.9 mph 4.7 kmh 4.0 mph6.4 kmh 30.27 in1025.1 mb - 0.00 in0.0 mm 0.00 in0.0 mm
04:32 AM 22.5°F-5.3°C 19.4°F-7.0°C 88% 0.9 mph NW1.4 kmh NW 6.0 mph9.7 kmh 30.27 in1025.1 mb - 0.00 in0.0 mm 0.00 in0.0 mm
04:27 AM 22.5°F-5.3°C 19.4°F-7.0°C 88% Calm Calm 0.9 mph1.4 kmh 30.27 in1025.1 mb - 0.00 in0.0 mm 0.00 in0.0 mm
04:22 AM 22.5°F-5.3°C 19.4°F-7.0°C 88% Calm Calm -- 30.27 in1025.1 mb - 0.00 in0.0 mm 0.00 in0.0 mm
04:17 AM 22.6°F-5.2°C 19.6°F-6.9°C 88% Calm Calm -- 30.27 in1025.1 mb - 0.00 in0.0 mm 0.00 in0.0 mm
04:12 AM 22.6°F-5.2°C 19.6°F-6.9°C 88% Calm Calm -- 30.27 in1025.1 mb - 0.00 in0.0 mm 0.00 in0.0 mm
04:07 AM 22.8°F-5.1°C 19.8°F-6.8°C 88% Calm Calm -- 30.27 in1025.1 mb - 0.00 in0.0 mm 0.00 in0.0 mm
04:02 AM 22.8°F-5.1°C 19.8°F-6.8°C 88% Calm Calm -- 30.28 in1025.4 mb - 0.00 in0.0 mm 0.00 in0.0 mm
03:57 AM 22.8°F-5.1°C 19.8°F-6.8°C 88% Calm Calm -- 30.28 in1025.4 mb - 0.00 in0.0 mm 0.00 in0.0 mm
03:52 AM 22.8°F-5.1°C 19.8°F-6.8°C 88% Calm Calm -- 30.28 in1025.4 mb - 0.00 in0.0 mm 0.00 in0.0 mm
03:47 AM 22.8°F-5.1°C 19.8°F-6.8°C 88% Calm Calm -- 30.28 in1025.4 mb - 0.00 in0.0 mm 0.00 in0.0 mm
03:42 AM 22.8°F-5.1°C 19.8°F-6.8°C 88% Calm Calm -- 30.28 in1025.4 mb - 0.00 in0.0 mm 0.00 in0.0 mm
03:37 AM 22.8°F-5.1°C 19.8°F-6.8°C 88% 0.9 mph NW1.4 kmh NW -- 30.28 in1025.4 mb - 0.00 in0.0 mm 0.00 in0.0 mm
03:32 AM 23.0°F-5.0°C 19.9°F-6.7°C 88% 0.9 mph NW1.4 kmh NW -- 30.28 in1025.4 mb - 0.00 in0.0 mm 0.00 in0.0 mm
03:27 AM 22.8°F-5.1°C 19.8°F-6.8°C 88% 0.9 mph NW1.4 kmh NW 2.0 mph3.2 kmh 30.28 in1025.4 mb - 0.00 in0.0 mm 0.00 in0.0 mm
03:22 AM 22.8°F-5.1°C 19.8°F-6.8°C 88% Calm Calm 0.9 mph1.4 kmh 30.28 in1025.4 mb - 0.00 in0.0 mm 0.00 in0.0 mm
03:17 AM 22.8°F-5.1°C 19.8°F-6.8°C 88% Calm Calm -- 30.28 in1025.4 mb - 0.00 in0.0 mm 0.00 in0.0 mm
03:12 AM 23.2°F-4.9°C 20.1°F-6.6°C 88% Calm Calm -- 30.28 in1025.4 mb - 0.00 in0.0 mm 0.00 in0.0 mm
03:07 AM 23.4°F-4.8°C 20.3°F-6.5°C 88% Calm Calm -- 30.28 in1025.4 mb - 0.00 in0.0 mm 0.00 in0.0 mm
03:02 AM 23.5°F-4.7°C 20.8°F-6.2°C 89% Calm Calm -- 30.28 in1025.4 mb - 0.00 in0.0 mm 0.00 in0.0 mm
02:57 AM 23.5°F-4.7°C 20.8°F-6.2°C 89% Calm Calm -- 30.28 in1025.4 mb - 0.00 in0.0 mm 0.00 in0.0 mm
02:52 AM 23.5°F-4.7°C 20.8°F-6.2°C 89% 0.9 mph 1.4 kmh -- 30.28 in1025.4 mb - 0.00 in0.0 mm 0.00 in0.0 mm
02:47 AM 23.5°F-4.7°C 20.8°F-6.2°C 89% 2.0 mph NNE3.2 kmh NNE -- 30.28 in1025.4 mb - 0.00 in0.0 mm 0.00 in0.0 mm
02:42 AM 23.4°F-4.8°C 20.7°F-6.3°C 89% 2.0 mph NNW3.2 kmh NNW 2.0 mph3.2 kmh 30.29 in1025.7 mb - 0.00 in0.0 mm 0.00 in0.0 mm
02:37 AM 23.0°F-5.0°C 20.3°F-6.5°C 89% 0.9 mph N1.4 kmh N 4.0 mph6.4 kmh 30.28 in1025.4 mb - 0.00 in0.0 mm 0.00 in0.0 mm
02:32 AM 22.8°F-5.1°C 20.1°F-6.6°C 89% Calm Calm 0.9 mph1.4 kmh 30.28 in1025.4 mb - 0.00 in0.0 mm 0.00 in0.0 mm
02:27 AM 22.8°F-5.1°C 20.1°F-6.6°C 89% Calm Calm -- 30.28 in1025.4 mb - 0.00 in0.0 mm 0.00 in0.0 mm
02:22 AM 23.2°F-4.9°C 20.5°F-6.4°C 89% Calm Calm 0.9 mph1.4 kmh 30.28 in1025.4 mb - 0.00 in0.0 mm 0.00 in0.0 mm
02:17 AM 23.4°F-4.8°C 20.7°F-6.3°C 89% Calm Calm -- 30.28 in1025.4 mb - 0.00 in0.0 mm 0.00 in0.0 mm
02:12 AM 23.5°F-4.7°C 20.8°F-6.2°C 89% Calm Calm -- 30.28 in1025.4 mb - 0.00 in0.0 mm 0.00 in0.0 mm
02:07 AM 23.5°F-4.7°C 20.8°F-6.2°C 89% 0.9 mph NE1.4 kmh NE -- 30.28 in1025.4 mb - 0.00 in0.0 mm 0.00 in0.0 mm
02:02 AM 23.5°F-4.7°C 20.8°F-6.2°C 89% 0.9 mph NNW1.4 kmh NNW 0.9 mph1.4 kmh 30.28 in1025.4 mb - 0.00 in0.0 mm 0.00 in0.0 mm
01:57 AM 23.5°F-4.7°C 20.8°F-6.2°C 89% Calm Calm 2.0 mph3.2 kmh 30.28 in1025.4 mb - 0.00 in0.0 mm 0.00 in0.0 mm
01:52 AM 23.5°F-4.7°C 20.8°F-6.2°C 89% Calm Calm 0.9 mph1.4 kmh 30.28 in1025.4 mb - 0.00 in0.0 mm 0.00 in0.0 mm
01:47 AM 23.7°F-4.6°C 21.0°F-6.1°C 89% 0.9 mph ESE1.4 kmh ESE -- 30.28 in1025.4 mb - 0.00 in0.0 mm 0.00 in0.0 mm
01:42 AM 23.7°F-4.6°C 21.2°F-6.0°C 90% 0.9 mph ESE1.4 kmh ESE 0.9 mph1.4 kmh 30.28 in1025.4 mb - 0.00 in0.0 mm 0.00 in0.0 mm
01:37 AM 23.5°F-4.7°C 21.0°F-6.1°C 90% 0.9 mph NNW1.4 kmh NNW 0.9 mph1.4 kmh 30.28 in1025.4 mb - 0.00 in0.0 mm 0.00 in0.0 mm
01:32 AM 23.5°F-4.7°C 21.0°F-6.1°C 90% 2.0 mph NNE3.2 kmh NNE 2.0 mph3.2 kmh 30.28 in1025.4 mb - 0.00 in0.0 mm 0.00 in0.0 mm
01:27 AM 23.5°F-4.7°C 21.0°F-6.1°C 90% 2.0 mph NNE3.2 kmh NNE 0.9 mph1.4 kmh 30.28 in1025.4 mb - 0.00 in0.0 mm 0.00 in0.0 mm
01:22 AM 23.5°F-4.7°C 21.0°F-6.1°C 90% 0.9 mph N1.4 kmh N 2.0 mph3.2 kmh 30.28 in1025.4 mb - 0.00 in0.0 mm 0.00 in0.0 mm
01:17 AM 23.4°F-4.8°C 20.8°F-6.2°C 90% 0.9 mph N1.4 kmh N 0.9 mph1.4 kmh 30.28 in1025.4 mb - 0.00 in0.0 mm 0.00 in0.0 mm
01:12 AM 23.4°F-4.8°C 20.8°F-6.2°C 90% Calm Calm 2.0 mph3.2 kmh 30.28 in1025.4 mb - 0.00 in0.0 mm 0.00 in0.0 mm
01:07 AM 23.4°F-4.8°C 20.8°F-6.2°C 90% Calm Calm -- 30.28 in1025.4 mb - 0.00 in0.0 mm 0.00 in0.0 mm
01:02 AM 23.4°F-4.8°C 20.8°F-6.2°C 90% Calm Calm -- 30.28 in1025.4 mb - 0.00 in0.0 mm 0.00 in0.0 mm
12:57 AM 23.2°F-4.9°C 20.5°F-6.4°C 89% Calm Calm -- 30.28 in1025.4 mb - 0.00 in0.0 mm 0.00 in0.0 mm
12:52 AM 23.4°F-4.8°C 20.8°F-6.2°C 90% Calm Calm -- 30.28 in1025.4 mb - 0.00 in0.0 mm 0.00 in0.0 mm
12:47 AM 23.2°F-4.9°C 20.7°F-6.3°C 90% Calm Calm -- 30.28 in1025.4 mb - 0.00 in0.0 mm 0.00 in0.0 mm
12:42 AM 23.2°F-4.9°C 20.5°F-6.4°C 89% Calm Calm -- 30.28 in1025.4 mb - 0.00 in0.0 mm 0.00 in0.0 mm
12:37 AM 23.4°F-4.8°C 20.7°F-6.3°C 89% Calm Calm -- 30.28 in1025.4 mb - 0.00 in0.0 mm 0.00 in0.0 mm
12:32 AM 23.4°F-4.8°C 20.7°F-6.3°C 89% Calm Calm -- 30.28 in1025.4 mb - 0.00 in0.0 mm 0.00 in0.0 mm
12:27 AM 23.4°F-4.8°C 20.7°F-6.3°C 89% Calm Calm -- 30.29 in1025.7 mb - 0.00 in0.0 mm 0.00 in0.0 mm
12:22 AM 23.5°F-4.7°C 20.8°F-6.2°C 89% Calm Calm -- 30.29 in1025.7 mb - 0.00 in0.0 mm 0.00 in0.0 mm
12:17 AM 23.5°F-4.7°C 20.8°F-6.2°C 89% Calm Calm -- 30.28 in1025.4 mb - 0.00 in0.0 mm 0.00 in0.0 mm
12:12 AM 23.4°F-4.8°C 20.7°F-6.3°C 89% Calm Calm -- 30.28 in1025.4 mb - 0.00 in0.0 mm 0.00 in0.0 mm
12:07 AM 23.4°F-4.8°C 20.7°F-6.3°C 89% Calm Calm -- 30.28 in1025.4 mb - 0.00 in0.0 mm 0.00 in0.0 mm
12:02 AM 23.5°F-4.7°C 20.8°F-6.2°C 89% Calm Calm -- 30.28 in1025.4 mb - 0.00 in0.0 mm 0.15 in3.8 mm